createdAt,value
2023-02-01T00:01:12.563Z,99011.19
2023-02-01T00:03:43.689Z,99006.11
2023-02-01T00:06:14.487Z,99000.88
2023-02-01T00:08:45.352Z,98997.17
2023-02-01T00:11:16.355Z,99004.25
2023-02-01T00:13:47.136Z,99003.73
2023-02-01T00:16:20.547Z,99002.72
2023-02-01T00:18:53.695Z,99010.16
2023-02-01T00:21:24.897Z,99014.70
2023-02-01T00:23:55.663Z,99017.07
2023-02-01T00:26:33.798Z,99017.24
2023-02-01T00:29:07.720Z,99014.35
2023-02-01T00:31:38.764Z,99020.44
2023-02-01T00:34:11.038Z,99022.28
2023-02-01T00:36:42.236Z,99026.33
2023-02-01T00:39:13.584Z,99029.03
2023-02-01T00:41:44.649Z,99028.02
2023-02-01T00:44:15.725Z,99027.66
2023-02-01T00:46:46.839Z,99033.08
2023-02-01T00:49:18.665Z,99034.08
2023-02-01T00:51:49.657Z,99036.10
2023-02-01T00:54:20.918Z,99039.98
2023-02-01T00:56:51.909Z,99043.55
2023-02-01T00:59:23.081Z,99038.96
2023-02-01T01:01:54.410Z,99037.11
2023-02-01T01:04:26.212Z,99036.27
2023-02-01T01:06:57.470Z,99038.46
2023-02-01T01:09:28.496Z,99035.77
2023-02-01T01:12:03.639Z,99045.06
2023-02-01T01:14:36.045Z,99038.14
2023-02-01T01:17:07.058Z,99038.30
2023-02-01T01:19:41.481Z,99041.02
2023-02-01T01:22:12.522Z,99042.71
2023-02-01T01:24:43.660Z,99048.30
2023-02-01T01:27:15.178Z,99047.13
2023-02-01T01:29:46.089Z,99054.56
2023-02-01T01:32:19.126Z,99063.19
2023-02-01T01:34:50.551Z,99068.43
2023-02-01T01:37:21.741Z,99070.28
2023-02-01T01:39:52.783Z,99066.56
2023-02-01T01:42:23.770Z,99068.42
2023-02-01T01:45:04.863Z,99065.21
2023-02-01T01:47:42.453Z,99074.17
2023-02-01T01:50:18.876Z,99074.15
2023-02-01T01:52:51.955Z,99081.44
2023-02-01T01:55:25.132Z,99084.30
2023-02-01T01:58:01.777Z,99084.30
2023-02-01T02:00:33.205Z,99084.30
2023-02-01T02:03:08.914Z,99083.45
2023-02-01T02:05:40.997Z,99087.69
2023-02-01T02:08:13.994Z,99087.19
2023-02-01T02:11:03.664Z,99079.91
2023-02-01T02:13:42.791Z,99078.55
2023-02-01T02:16:28.536Z,99077.55
2023-02-01T02:19:21.442Z,99077.38
2023-02-01T02:22:08.149Z,99084.82
2023-02-01T02:25:06.118Z,99081.77
2023-02-01T02:27:49.048Z,99088.69
2023-02-01T02:30:51.027Z,99089.88
2023-02-01T02:36:25.189Z,99082.45
2023-02-01T02:39:05.491Z,99081.42
2023-02-01T02:42:00.939Z,99085.31
2023-02-01T02:44:55.417Z,99087.17
2023-02-01T02:47:35.891Z,99095.63
2023-02-01T02:50:35.787Z,99090.90
2023-02-01T02:53:29.351Z,99112.18
2023-02-01T02:56:19.870Z,99112.69
2023-02-01T02:59:10.266Z,99111.16
2023-02-01T03:01:59.741Z,99121.80
2023-02-01T03:04:30.760Z,99115.56
2023-02-01T03:07:17.077Z,99113.02
2023-02-01T03:09:51.097Z,99111.84
2023-02-01T03:12:41.393Z,99113.55
2023-02-01T03:15:17.453Z,99113.36
2023-02-01T03:17:49.687Z,99112.00
2023-02-01T03:20:23.260Z,99114.20
2023-02-01T03:22:56.117Z,99121.97
2023-02-01T03:25:33.326Z,99124.00
2023-02-01T03:28:08.090Z,99124.69
2023-02-01T03:30:43.211Z,99129.23
2023-02-01T03:33:25.988Z,99122.81
2023-02-01T03:36:08.977Z,99127.20
2023-02-01T03:38:46.157Z,99131.42
2023-02-01T03:41:26.422Z,99123.83
2023-02-01T03:44:04.049Z,99119.77
2023-02-01T03:46:38.595Z,99128.05
2023-02-01T03:49:14.668Z,99126.88
2023-02-01T03:51:45.658Z,99132.11
2023-02-01T03:54:20.347Z,99124.67
2023-02-01T03:56:52.999Z,99120.63
2023-02-01T03:59:25.165Z,99120.96
2023-02-01T04:01:56.398Z,99133.98
2023-02-01T04:04:27.418Z,99133.30
2023-02-01T04:06:58.695Z,99133.29
2023-02-01T04:09:32.816Z,99132.95
2023-02-01T04:12:03.745Z,99132.11
2023-02-01T04:14:34.787Z,99133.30
2023-02-01T04:17:05.714Z,99129.23
2023-02-01T04:19:36.773Z,99126.70
2023-02-01T04:22:07.813Z,99137.52
2023-02-01T04:24:38.758Z,99137.35
2023-02-01T04:27:10.004Z,99136.34
2023-02-01T04:29:41.047Z,99132.45
2023-02-01T04:32:12.076Z,99129.92
2023-02-01T04:34:43.143Z,99134.13
2023-02-01T04:37:14.174Z,99136.34
2023-02-01T04:39:45.213Z,99140.57
2023-02-01T04:42:16.359Z,99137.86
2023-02-01T04:44:47.262Z,99142.77
2023-02-01T04:47:19.579Z,99145.96
2023-02-01T04:49:50.923Z,99149.85
2023-02-01T04:52:21.970Z,99154.92
2023-02-01T04:54:56.265Z,99160.48
2023-02-01T04:57:28.089Z,99168.09
2023-02-01T04:59:58.983Z,99169.77
2023-02-01T05:02:30.242Z,99172.66
2023-02-01T05:05:01.503Z,99175.53
2023-02-01T05:07:32.638Z,99170.81
2023-02-01T05:10:03.608Z,99170.46
2023-02-01T05:12:52.529Z,99168.60
2023-02-01T05:15:23.570Z,99166.41
2023-02-01T05:17:54.516Z,99161.50
2023-02-01T05:20:25.553Z,99165.56
2023-02-01T05:22:56.632Z,99165.73
2023-02-01T05:25:27.632Z,99170.63
2023-02-01T05:27:58.643Z,99165.23
2023-02-01T05:30:29.563Z,99165.73
2023-02-01T05:33:00.577Z,99164.54
2023-02-01T05:35:31.914Z,99160.48
2023-02-01T05:38:02.837Z,99160.14
2023-02-01T05:40:33.796Z,99158.63
2023-02-01T05:43:04.757Z,99156.09
2023-02-01T05:45:37.825Z,99157.95
2023-02-01T05:48:09.198Z,99155.77
2023-02-01T05:50:40.382Z,99150.52
2023-02-01T05:53:14.035Z,99160.48
2023-02-01T05:55:45.287Z,99156.27
2023-02-01T05:58:16.255Z,99157.61
2023-02-01T06:00:47.277Z,99150.52
2023-02-01T06:03:18.314Z,99151.70
2023-02-01T06:05:49.858Z,99153.89
2023-02-01T06:08:20.902Z,99157.61
2023-02-01T06:10:51.841Z,99154.08
2023-02-01T06:13:23.657Z,99157.61
2023-02-01T06:15:55.023Z,99150.36
2023-02-01T06:18:26.703Z,99144.78
2023-02-01T06:21:01.256Z,99143.77
2023-02-01T06:23:33.220Z,99137.69
2023-02-01T06:26:06.062Z,99139.20
2023-02-01T06:28:39.860Z,99140.05
2023-02-01T06:31:11.274Z,99135.65
2023-02-01T06:33:43.040Z,99134.48
2023-02-01T06:36:16.479Z,99131.09
2023-02-01T06:38:47.536Z,99131.25
2023-02-01T06:41:18.964Z,99127.38
2023-02-01T06:43:50.043Z,99128.73
2023-02-01T06:46:21.144Z,99126.88
2023-02-01T06:48:52.180Z,99132.79
2023-02-01T06:51:29.043Z,99131.08
2023-02-01T06:54:00.486Z,99135.49
2023-02-01T06:56:33.281Z,99137.84
2023-02-01T06:59:07.873Z,99135.14
2023-02-01T07:01:39.086Z,99138.70
2023-02-01T07:04:11.989Z,99154.23
2023-02-01T07:06:42.982Z,99156.77
2023-02-01T07:09:14.908Z,99143.09
2023-02-01T07:11:45.978Z,99150.19
2023-02-01T07:14:17.239Z,99151.19
2023-02-01T07:16:48.344Z,99147.65
2023-02-01T07:19:19.487Z,99148.31
2023-02-01T07:21:50.456Z,99145.96
2023-02-01T07:24:21.392Z,99147.31
2023-02-01T07:26:53.203Z,99145.79
2023-02-01T07:29:24.106Z,99151.35
2023-02-01T07:31:55.145Z,99146.79
2023-02-01T07:34:26.091Z,99149.33
2023-02-01T07:36:57.119Z,99150.35
2023-02-01T07:39:29.555Z,99154.40
2023-02-01T07:42:00.508Z,99159.98
2023-02-01T07:44:31.391Z,99152.54
2023-02-01T07:47:02.337Z,99154.73
2023-02-01T07:49:33.246Z,99158.61
2023-02-01T07:52:04.395Z,99158.27
2023-02-01T07:54:35.385Z,99156.23
2023-02-01T07:57:06.339Z,99148.98
2023-02-01T07:59:57.342Z,99147.63
2023-02-01T08:02:28.322Z,99142.39
2023-02-01T08:04:59.730Z,99141.86
2023-02-01T08:07:30.666Z,99137.48
2023-02-01T08:10:02.223Z,99141.02
2023-02-01T08:12:33.867Z,99137.29
2023-02-01T08:15:05.184Z,99134.23
2023-02-01T08:17:36.106Z,99138.80
2023-02-01T08:20:08.437Z,99135.76
2023-02-01T08:22:39.412Z,99133.56
2023-02-01T08:25:12.684Z,99134.40
2023-02-01T08:27:43.717Z,99135.08
2023-02-01T08:30:18.849Z,99139.29
2023-02-01T08:32:50.198Z,99139.28
2023-02-01T08:35:23.644Z,99137.92
2023-02-01T08:37:54.846Z,99139.10
2023-02-01T08:40:25.955Z,99142.98
2023-02-01T08:42:57.141Z,99142.83
2023-02-01T08:45:31.002Z,99138.59
2023-02-01T08:48:02.235Z,99141.79
2023-02-01T08:50:34.359Z,99136.70
2023-02-01T08:53:05.253Z,99140.08
2023-02-01T08:55:36.381Z,99145.32
2023-02-01T08:58:07.404Z,99145.46
2023-02-01T09:00:38.601Z,99144.28
2023-02-01T09:03:12.066Z,99144.10
2023-02-01T09:05:49.493Z,99144.61
2023-02-01T09:08:21.407Z,99147.13
2023-02-01T09:10:52.349Z,99145.44
2023-02-01T09:13:30.421Z,99150.34
2023-02-01T09:16:02.335Z,99148.30
2023-02-01T09:18:50.812Z,99149.16
2023-02-01T09:21:33.059Z,99149.50
2023-02-01T09:24:05.213Z,99148.31
2023-02-01T09:26:36.682Z,99142.23
2023-02-01T09:29:12.345Z,99142.55
2023-02-01T09:31:49.915Z,99136.46
2023-02-01T09:34:28.528Z,99124.28
2023-02-01T09:36:59.517Z,99122.77
2023-02-01T09:39:32.270Z,99114.61
2023-02-01T09:42:16.497Z,99119.50
2023-02-01T09:45:09.482Z,99113.02
2023-02-01T09:47:49.487Z,99113.45
2023-02-01T09:50:24.130Z,99112.98
2023-02-01T09:53:00.698Z,99113.02
2023-02-01T09:55:39.128Z,99118.49
2023-02-01T09:58:15.092Z,99118.15
2023-02-01T10:00:53.103Z,99120.88
2023-02-01T10:03:26.032Z,99119.88
2023-02-01T10:06:16.268Z,99122.73
2023-02-01T10:09:09.182Z,99119.37
2023-02-01T10:11:52.196Z,99125.67
2023-02-01T10:14:44.051Z,99126.39
2023-02-01T10:17:26.691Z,99120.96
2023-02-01T10:20:11.001Z,99124.03
2023-02-01T10:25:44.304Z,99122.39
2023-02-01T10:28:19.703Z,99119.71
2023-02-01T10:30:51.339Z,99112.98
2023-02-01T10:33:27.307Z,99112.17
2023-02-01T10:36:05.552Z,99113.92
2023-02-01T10:38:36.889Z,99117.50
2023-02-01T10:41:19.390Z,99123.45
2023-02-01T10:43:57.298Z,99124.12
2023-02-01T10:46:28.739Z,99123.45
2023-02-01T10:49:02.620Z,99121.58
2023-02-01T10:51:46.197Z,99121.03
2023-02-01T10:54:21.694Z,99122.51
2023-02-01T10:56:54.504Z,99123.48
2023-02-01T10:59:30.421Z,99124.58
2023-02-01T11:02:17.369Z,99126.85
2023-02-01T11:04:48.916Z,99125.92
2023-02-01T11:07:26.724Z,99123.98
2023-02-01T11:09:59.100Z,99115.95
2023-02-01T11:12:33.415Z,99119.29
2023-02-01T11:15:16.239Z,99115.00
2023-02-01T11:17:49.621Z,99118.72
2023-02-01T11:20:29.080Z,99112.29
2023-02-01T11:23:00.734Z,99102.98
2023-02-01T11:25:33.611Z,99107.28
2023-02-01T11:28:05.668Z,99102.42
2023-02-01T11:30:41.454Z,99103.65
2023-02-01T11:33:16.063Z,99105.36
2023-02-01T11:35:49.351Z,99105.05
2023-02-01T11:38:28.785Z,99104.55
2023-02-01T11:41:15.860Z,99101.67
2023-02-01T11:44:01.585Z,99097.98
2023-02-01T11:46:35.170Z,99098.69
2023-02-01T11:49:22.329Z,99104.63
2023-02-01T11:52:07.087Z,99094.11
2023-02-01T11:54:54.921Z,99093.73
2023-02-01T11:57:49.514Z,99090.83
2023-02-01T12:00:43.445Z,99092.14
2023-02-01T12:03:34.628Z,99090.73
2023-02-01T12:06:11.060Z,99092.89
2023-02-01T12:09:01.725Z,99084.91
2023-02-01T12:11:44.746Z,99084.91
2023-02-01T12:14:39.083Z,99088.80
2023-02-01T12:17:41.313Z,99085.09
2023-02-01T12:20:24.996Z,99085.78
2023-02-01T12:23:09.516Z,99078.52
2023-02-01T12:25:58.258Z,99081.92
2023-02-01T12:28:58.498Z,99078.33
2023-02-01T12:31:45.133Z,99080.45
2023-02-01T12:34:37.107Z,99081.59
2023-02-01T12:37:20.520Z,99078.13
2023-02-01T12:39:58.810Z,99082.86
2023-02-01T12:42:33.821Z,99078.25
2023-02-01T12:45:14.028Z,99078.38
2023-02-01T12:47:49.690Z,99081.59
2023-02-01T12:50:26.797Z,99081.78
2023-02-01T12:53:12.331Z,99084.33
2023-02-01T12:55:51.749Z,99083.28
2023-02-01T12:58:29.707Z,99075.61
2023-02-01T13:01:05.866Z,99075.93
2023-02-01T13:03:43.964Z,99074.25
2023-02-01T13:06:20.814Z,99076.14
2023-02-01T13:08:59.010Z,99080.42
2023-02-01T13:11:33.312Z,99077.76
2023-02-01T13:14:10.028Z,99079.67
2023-02-01T13:16:45.044Z,99081.27
2023-02-01T13:19:22.520Z,99079.48
2023-02-01T13:21:59.919Z,99082.20
2023-02-01T13:24:39.217Z,99082.73
2023-02-01T13:27:14.724Z,99085.98
2023-02-01T13:29:53.130Z,99089.73
2023-02-01T13:33:51.264Z,99091.62
2023-02-01T13:35:53.429Z,99093.16
2023-02-01T13:38:47.170Z,99092.67
2023-02-01T13:41:30.020Z,99095.42
2023-02-01T13:44:06.737Z,99098.52
2023-02-01T13:46:44.531Z,99108.71
2023-02-01T13:49:24.856Z,99109.61
2023-02-01T13:51:58.552Z,99108.61
2023-02-01T13:54:36.192Z,99105.05
2023-02-01T13:57:17.347Z,99108.62
2023-02-01T14:00:08.172Z,99103.55
2023-02-01T14:03:24.061Z,99104.40
2023-02-01T14:06:05.723Z,99100.02
2023-02-01T14:08:44.642Z,99100.22
2023-02-01T14:11:52.504Z,99097.22
2023-02-01T14:14:46.240Z,99094.58
2023-02-01T14:17:43.287Z,99102.58
2023-02-01T14:20:46.708Z,99101.57
2023-02-01T14:23:22.356Z,99101.02
2023-02-01T14:26:15.294Z,99107.92
2023-02-01T14:29:22.259Z,99108.25
2023-02-01T14:32:03.596Z,99107.02
2023-02-01T14:34:56.000Z,99107.02
2023-02-01T14:37:33.894Z,99103.63
2023-02-01T14:40:06.562Z,99101.41
2023-02-01T14:42:46.323Z,99100.40
2023-02-01T14:45:52.784Z,99103.65
2023-02-01T14:48:45.333Z,99100.83
2023-02-01T14:51:19.831Z,99106.60
2023-02-01T14:53:52.225Z,99101.55
2023-02-01T14:56:23.751Z,99100.38
2023-02-01T14:58:59.663Z,99100.39
2023-02-01T15:01:32.961Z,99102.63
2023-02-01T15:04:12.385Z,99104.13
2023-02-01T15:06:48.646Z,99109.05
2023-02-01T15:09:23.904Z,99106.00
2023-02-01T15:12:02.020Z,99108.56
2023-02-01T15:14:35.865Z,99106.52
2023-02-01T15:17:20.322Z,99110.77
2023-02-01T15:19:59.120Z,99115.55
2023-02-01T15:22:31.767Z,99116.92
2023-02-01T15:25:04.334Z,99118.31
2023-02-01T15:27:35.952Z,99119.34
2023-02-01T15:30:18.604Z,99125.45
2023-02-01T15:32:50.511Z,99117.66
2023-02-01T15:35:44.617Z,99121.89
2023-02-01T15:38:41.472Z,99125.11
2023-02-01T15:41:16.246Z,99126.29
2023-02-01T15:44:04.987Z,99126.80
2023-02-01T15:46:38.804Z,99126.46
2023-02-01T15:49:22.968Z,99125.45
2023-02-01T15:51:55.863Z,99124.96
2023-02-01T15:54:32.123Z,99126.33
2023-02-01T15:57:06.384Z,99123.63
2023-02-01T15:59:45.122Z,99119.41
2023-02-01T16:02:33.267Z,99120.61
2023-02-01T16:05:05.601Z,99121.60
2023-02-01T16:07:38.162Z,99120.27
2023-02-01T16:10:26.944Z,99119.93
2023-02-01T16:13:01.221Z,99116.20
2023-02-01T16:15:33.108Z,99117.58
2023-02-01T16:18:04.088Z,99115.06
2023-02-01T16:20:36.379Z,99110.02
2023-02-01T16:23:07.698Z,99115.27
2023-02-01T16:25:39.805Z,99115.60
2023-02-01T16:28:12.945Z,99121.19
2023-02-01T16:30:43.987Z,99120.84
2023-02-01T16:33:23.180Z,99117.47
2023-02-01T16:35:58.583Z,99113.23
2023-02-01T16:38:30.388Z,99116.30
2023-02-01T16:41:03.507Z,99122.77
2023-02-01T16:43:34.478Z,99117.52
2023-02-01T16:46:05.729Z,99123.46
2023-02-01T16:48:38.375Z,99120.08
2023-02-01T16:51:14.843Z,99125.33
2023-02-01T16:53:54.315Z,99126.67
2023-02-01T16:56:33.656Z,99121.44
2023-02-01T16:59:05.231Z,99115.35
2023-02-01T17:01:37.717Z,99121.79
2023-02-01T17:04:08.944Z,99123.83
2023-02-01T17:06:40.913Z,99125.36
2023-02-01T17:09:12.534Z,99129.26
2023-02-01T17:11:43.563Z,99128.91
2023-02-01T17:14:20.469Z,99129.26
2023-02-01T17:16:55.802Z,99136.20
2023-02-01T17:19:26.961Z,99130.44
2023-02-01T17:21:59.942Z,99124.34
2023-02-01T17:24:47.594Z,99124.33
2023-02-01T17:27:20.095Z,99123.33
2023-02-01T17:29:51.921Z,99129.26
2023-02-01T17:32:32.169Z,99131.64
2023-02-01T17:35:05.870Z,99132.83
2023-02-01T17:37:43.998Z,99131.13
2023-02-01T17:40:26.250Z,99129.94
2023-02-01T17:43:04.338Z,99134.66
2023-02-01T17:45:40.804Z,99132.63
2023-02-01T17:48:12.414Z,99132.46
2023-02-01T17:50:44.118Z,99134.65
2023-02-01T17:53:17.152Z,99138.40
2023-02-01T17:55:48.877Z,99134.19
2023-02-01T17:58:21.336Z,99133.70
2023-02-01T18:00:52.948Z,99131.02
2023-02-01T18:03:31.866Z,99130.86
2023-02-01T18:06:03.320Z,99134.41
2023-02-01T18:08:34.555Z,99134.09
2023-02-01T18:11:07.738Z,99135.95
2023-02-01T18:13:38.986Z,99141.89
2023-02-01T18:16:21.019Z,99141.23
2023-02-01T18:18:52.529Z,99140.05
2023-02-01T18:21:27.020Z,99144.45
2023-02-01T18:24:00.118Z,99135.65
2023-02-01T18:26:31.970Z,99140.39
2023-02-01T18:29:03.186Z,99148.69
2023-02-01T18:31:35.968Z,99153.46
2023-02-01T18:34:06.994Z,99152.63
2023-02-01T18:36:38.631Z,99143.84
2023-02-01T18:39:11.827Z,99137.42
2023-02-01T18:41:45.535Z,99133.54
2023-02-01T18:44:18.060Z,99124.91
2023-02-01T18:46:49.439Z,99129.99
2023-02-01T18:49:21.460Z,99123.58
2023-02-01T18:51:56.609Z,99123.08
2023-02-01T18:54:28.389Z,99127.64
2023-02-01T18:56:59.716Z,99126.46
2023-02-01T18:59:31.000Z,99128.84
2023-02-01T19:02:04.220Z,99130.04
2023-02-01T19:04:35.760Z,99135.64
2023-02-01T19:07:06.869Z,99125.15
2023-02-01T19:09:37.941Z,99127.36
2023-02-01T19:12:12.531Z,99124.98
2023-02-01T19:14:44.403Z,99119.40
2023-02-01T19:17:15.431Z,99125.15
2023-02-01T19:19:48.131Z,99120.91
2023-02-01T19:22:19.317Z,99123.63
2023-02-01T19:24:52.419Z,99120.07
2023-02-01T19:27:24.561Z,99117.54
2023-02-01T19:29:56.086Z,99110.27
2023-02-01T19:32:27.190Z,99110.42
2023-02-01T19:34:58.674Z,99113.48
2023-02-01T19:37:29.870Z,99116.02
2023-02-01T19:40:01.401Z,99113.30
2023-02-01T19:42:33.150Z,99116.36
2023-02-01T19:45:04.835Z,99116.70
2023-02-01T19:47:36.183Z,99117.71
2023-02-01T19:50:08.862Z,99119.08
2023-02-01T19:52:41.753Z,99122.46
2023-02-01T19:55:13.562Z,99121.63
2023-02-01T19:57:45.134Z,99120.80
2023-02-01T20:00:16.483Z,99123.02
2023-02-01T20:02:47.826Z,99124.70
2023-02-01T20:05:19.225Z,99119.27
2023-02-01T20:07:50.501Z,99121.30
2023-02-01T20:10:21.845Z,99122.46
2023-02-01T20:12:55.175Z,99126.69
2023-02-01T20:15:27.705Z,99122.96
2023-02-01T20:17:59.396Z,99116.52
2023-02-01T20:20:30.982Z,99112.80
2023-02-01T20:23:03.072Z,99110.27
2023-02-01T20:25:37.410Z,99105.02
2023-02-01T20:28:09.064Z,99105.02
2023-02-01T20:30:40.337Z,99102.50
2023-02-01T20:33:12.366Z,99104.55
2023-02-01T20:35:47.809Z,99106.23
2023-02-01T20:38:18.979Z,99104.91
2023-02-01T20:40:50.204Z,99100.19
2023-02-01T20:43:21.279Z,99096.82
2023-02-01T20:45:52.889Z,99103.10
2023-02-01T20:48:24.178Z,99103.27
2023-02-01T20:50:58.002Z,99103.95
2023-02-01T20:53:29.659Z,99104.64
2023-02-01T20:56:01.201Z,99103.11
2023-02-01T20:58:33.235Z,99102.25
2023-02-01T21:01:04.758Z,99096.50
2023-02-01T21:03:37.765Z,99091.09
2023-02-01T21:06:11.058Z,99088.21
2023-02-01T21:08:42.625Z,99091.09
2023-02-01T21:11:16.026Z,99089.90
2023-02-01T21:13:51.665Z,99089.73
2023-02-01T21:16:24.812Z,99093.63
2023-02-01T21:18:55.873Z,99089.23
2023-02-01T21:21:27.016Z,99090.58
2023-02-01T21:24:03.660Z,99096.84
2023-02-01T21:26:41.205Z,99096.34
2023-02-01T21:29:13.945Z,99097.52
2023-02-01T21:31:45.726Z,99104.27
2023-02-01T21:34:17.514Z,99105.63
2023-02-01T21:36:48.653Z,99103.93
2023-02-01T21:39:19.838Z,99098.69
2023-02-01T21:42:08.667Z,99102.73
2023-02-01T21:44:39.801Z,99097.82
2023-02-01T21:47:11.915Z,99099.50
2023-02-01T21:49:43.654Z,99102.37
2023-02-01T21:52:17.682Z,99103.39
2023-02-01T21:54:49.435Z,99098.48
2023-02-01T21:57:21.061Z,99094.77
2023-02-01T21:59:52.248Z,99088.17
2023-02-01T22:02:23.786Z,99084.95
2023-02-01T22:04:55.063Z,99084.61
2023-02-01T22:07:26.370Z,99083.27
2023-02-01T22:09:57.527Z,99083.77
2023-02-01T22:12:28.711Z,99083.62
2023-02-01T22:14:59.842Z,99086.14
2023-02-01T22:17:31.799Z,99088.01
2023-02-01T22:20:02.937Z,99084.11
2023-02-01T22:22:34.404Z,99090.05
2023-02-01T22:25:06.715Z,99091.56
2023-02-01T22:28:30.344Z,99088.34
2023-02-01T22:30:30.416Z,99090.88
2023-02-01T22:33:01.340Z,99090.36
2023-02-01T22:35:32.254Z,99091.88
2023-02-01T22:38:03.276Z,99088.48
2023-02-01T22:40:34.683Z,99085.11
2023-02-01T22:43:06.285Z,99080.37
2023-02-01T22:45:39.150Z,99077.83
2023-02-01T22:48:10.245Z,99081.02
2023-02-01T22:50:41.137Z,99078.14
2023-02-01T22:53:12.501Z,99079.02
2023-02-01T22:55:45.591Z,99074.79
2023-02-01T22:58:16.523Z,99075.46
2023-02-01T23:00:47.762Z,99077.32
2023-02-01T23:03:18.817Z,99075.64
2023-02-01T23:05:49.811Z,99079.70
2023-02-01T23:08:20.817Z,99079.05
2023-02-01T23:10:51.715Z,99073.48
2023-02-01T23:13:22.706Z,99075.88
2023-02-01T23:15:53.617Z,99082.48
2023-02-01T23:18:24.562Z,99080.80
2023-02-01T23:20:55.441Z,99079.96
2023-02-01T23:23:26.953Z,99080.33
2023-02-01T23:25:58.144Z,99079.81
2023-02-01T23:28:29.585Z,99081.19
2023-02-01T23:31:00.950Z,99078.81
2023-02-01T23:33:31.871Z,99079.65
2023-02-01T23:36:04.780Z,99075.76
2023-02-01T23:38:36.439Z,99075.25
2023-02-01T23:41:08.701Z,99069.50
2023-02-01T23:43:57.254Z,99069.67
2023-02-01T23:46:30.034Z,99067.46
2023-02-01T23:49:02.429Z,99065.63
2023-02-01T23:51:33.569Z,99070.02
2023-02-01T23:54:05.056Z,99060.39
2023-02-01T23:56:38.762Z,99059.71
2023-02-01T23:59:13.295Z,99065.45
